West Chicago, IL

01:37 CDT le 30 septembre 2016 (GMT -0500)
Du Page | | Change Station

Alt. 758 ft 41.90 °N, 88.25 °W | Updated 15 minutes ago

Overcast
Couvert
61 ° F
Paraît 61 ° F
N
13
Vent Variable Vent de NNE

Aujourd'hui
Haut(e) -- | Bas -- ° F
--% Risque de précip.
Hier
Haut(e) -- | Bas -- ° F
Precip. -- pouce
Pression 30.17 pouce
Visibilité 10.0 Miles terrestres
Nuages Couvert 1300 ft
Point de rosée 56 ° F
Humidité 83%
Précipitations 0.00 pouce
Profondeur de la couche neigeuse Non disponible.
6:49 AM 6:35 PM
Lune descendante, 1% visible
SPECI KDPA 300622Z 03011KT 10SM OVC013 16/13 A3017 RMK AO2 T01610133
Pression 30.17 pouce
Visibilité 10.0 Miles terrestres
Nuages Couvert 1300 ft
Point de rosée 56 ° F
Humidité 83%
Précipitations 0.00 pouce
Profondeur de la couche neigeuse Non disponible.
6:49 AM 6:35 PM
Lune descendante, 1% visible
SPECI KDPA 300622Z 03011KT 10SM OVC013 16/13 A3017 RMK AO2 T01610133

10-Day Weather Forecast

Almanac

Astronomie

Sep. 30, 2016 Lever Coucher
Temps réel
Crépuscule civil
Crépuscule nautique
Crépuscule astronomique
Lune
Durée de lumière visible
Longueur du jour
Tomorrow will be .
, % of the Moon is Illuminated

Extrêmes aujourd'hui

State Highs State Lows

Community

WunderPhotos

Upload Photos

1,942,668 Photos téléchargées !

WunderBlog® & News

Nearby

Qualité de l'air

  Qualité de l'air Indice de la qualité de l'air Polluant
Not available.

Épaisseur de neige

Station Depth Altitude

Activité sismique

Ville Distance Mag. Time & Date
Minimum magnitude displayed is 2.5.

Températures des eaux côtières

Lieu Température

Stations

Stations météo à proximité

Emplacement de la station Température Refroidissement éolien Point de rosée Humidité Vent Precip. Alt. Mise à jour Type
                   

Watches & Warnings

There are currently no watches in effect.